createdAt,value
2017-09-07T00:00:29.653Z,12.72
2017-09-07T00:01:42.192Z,12.83
2017-09-07T00:02:54.415Z,12.76
2017-09-07T00:04:06.629Z,12.8
2017-09-07T00:05:19.160Z,12.68
2017-09-07T00:06:31.398Z,12.8
2017-09-07T00:07:43.927Z,12.78
2017-09-07T00:08:55.846Z,12.75
2017-09-07T00:10:08.092Z,12.75
2017-09-07T00:11:20.631Z,12.69
2017-09-07T00:12:32.883Z,12.75
2017-09-07T00:13:45.398Z,12.75
2017-09-07T00:14:57.618Z,12.66
2017-09-07T00:16:09.847Z,12.65
2017-09-07T00:17:21.763Z,12.66
2017-09-07T00:18:34.280Z,12.72
2017-09-07T00:19:46.823Z,12.68
2017-09-07T00:20:59.351Z,12.68
2017-09-07T00:22:11.256Z,12.66
2017-09-07T00:23:23.500Z,12.68
2017-09-07T00:24:36.264Z,12.65
2017-09-07T00:25:48.176Z,12.61
2017-09-07T00:27:00.729Z,12.54
2017-09-07T00:28:13.283Z,12.63
2017-09-07T00:29:25.196Z,12.69
2017-09-07T00:30:37.112Z,12.61
2017-09-07T00:31:49.665Z,12.55
2017-09-07T00:33:01.886Z,12.61
2017-09-07T00:34:14.431Z,12.58
2017-09-07T00:35:26.998Z,12.55
2017-09-07T00:36:39.527Z,12.55
2017-09-07T00:37:52.088Z,12.61
2017-09-07T00:39:04.614Z,12.55
2017-09-07T00:40:16.860Z,12.53
2017-09-07T00:41:29.426Z,12.53
2017-09-07T00:42:41.630Z,12.5
2017-09-07T00:43:53.549Z,12.43
2017-09-07T00:45:05.839Z,12.44
2017-09-07T00:46:18.377Z,12.45
2017-09-07T00:47:30.625Z,12.43
2017-09-07T00:48:42.871Z,12.45
2017-09-07T00:49:55.101Z,12.45
2017-09-07T00:51:07.646Z,12.45
2017-09-07T00:52:20.191Z,12.43
2017-09-07T00:53:32.429Z,12.39
2017-09-07T00:54:44.954Z,12.44
2017-09-07T00:55:57.495Z,12.45
2017-09-07T00:57:09.711Z,12.47
2017-09-07T00:58:21.962Z,12.4
2017-09-07T00:59:34.514Z,12.39
2017-09-07T01:00:46.732Z,12.35
2017-09-07T01:01:58.630Z,12.39
2017-09-07T01:03:10.851Z,12.39
2017-09-07T01:04:23.118Z,12.36
2017-09-07T01:05:35.321Z,12.33
2017-09-07T01:06:47.839Z,12.33
2017-09-07T01:08:00.373Z,12.32
2017-09-07T01:09:12.595Z,12.32
2017-09-07T01:10:24.194Z,12.29
2017-09-07T01:11:36.139Z,12.29
2017-09-07T01:12:48.685Z,12.25
2017-09-07T01:14:00.933Z,12.23
2017-09-07T01:15:12.834Z,12.32
2017-09-07T01:16:25.067Z,12.26
2017-09-07T01:17:37.299Z,12.25
2017-09-07T01:18:49.835Z,12.23
2017-09-07T01:20:02.379Z,12.14
2017-09-07T01:21:14.604Z,12.15
2017-09-07T01:22:27.146Z,12.14
2017-09-07T01:23:39.699Z,12.14
2017-09-07T01:24:52.222Z,12.1
2017-09-07T01:26:04.766Z,12.11
2017-09-07T01:27:17.318Z,12
2017-09-07T01:28:29.531Z,11.99
2017-09-07T01:29:42.029Z,12
2017-09-07T01:30:54.547Z,12
2017-09-07T01:32:06.760Z,11.95
2017-09-07T01:33:19.310Z,11.99
2017-09-07T01:34:31.553Z,11.91
2017-09-07T01:35:44.109Z,11.91
2017-09-07T01:36:56.354Z,11.85
2017-09-07T01:38:08.599Z,11.91
2017-09-07T01:39:21.145Z,11.8
2017-09-07T01:40:33.663Z,11.83
2017-09-07T01:41:45.884Z,11.85
2017-09-07T01:42:58.107Z,11.81
2017-09-07T01:44:10.646Z,11.77
2017-09-07T01:45:23.147Z,11.77
2017-09-07T01:46:35.388Z,11.7
2017-09-07T01:47:47.337Z,11.76
2017-09-07T01:48:58.938Z,11.73
2017-09-07T01:50:10.857Z,11.73
2017-09-07T01:51:23.399Z,11.73
2017-09-07T01:52:35.615Z,11.71
2017-09-07T01:53:47.833Z,11.71
2017-09-07T01:55:00.337Z,11.65
2017-09-07T01:56:12.557Z,11.7
2017-09-07T01:57:24.781Z,11.67
2017-09-07T01:58:37.301Z,11.73
2017-09-07T01:59:49.222Z,11.7
2017-09-07T02:01:01.757Z,11.62
2017-09-07T02:02:14.257Z,11.71
2017-09-07T02:03:26.801Z,11.7
2017-09-07T02:04:38.732Z,11.65
2017-09-07T02:05:50.643Z,11.59
2017-09-07T02:07:02.873Z,11.63
2017-09-07T02:08:15.087Z,11.62
2017-09-07T02:09:27.313Z,11.56
2017-09-07T02:10:39.875Z,11.59
2017-09-07T02:11:51.792Z,11.62
2017-09-07T02:13:04.324Z,11.62
2017-09-07T02:14:16.558Z,11.62
2017-09-07T02:15:28.783Z,11.51
2017-09-07T02:16:41.313Z,11.58
2017-09-07T02:17:53.882Z,11.55
2017-09-07T02:19:06.119Z,11.55
2017-09-07T02:20:18.667Z,11.53
2017-09-07T02:21:31.194Z,11.49
2017-09-07T02:22:43.742Z,11.49
2017-09-07T02:23:56.255Z,11.51
2017-09-07T02:25:08.145Z,11.55
2017-09-07T02:26:20.389Z,11.56
2017-09-07T02:27:32.319Z,11.51
2017-09-07T02:28:44.559Z,11.58
2017-09-07T02:29:56.809Z,11.52
2017-09-07T02:31:09.337Z,11.53
2017-09-07T02:32:21.580Z,11.58
2017-09-07T02:33:33.864Z,11.53
2017-09-07T02:34:46.097Z,11.58
2017-09-07T02:35:58.314Z,11.53
2017-09-07T02:37:09.958Z,11.52
2017-09-07T02:38:22.471Z,11.56
2017-09-07T02:39:34.721Z,11.52
2017-09-07T02:40:46.967Z,11.52
2017-09-07T02:41:59.220Z,11.48
2017-09-07T02:43:11.153Z,11.58
2017-09-07T02:44:23.659Z,11.53
2017-09-07T02:45:35.904Z,11.51
2017-09-07T02:46:47.807Z,11.41
2017-09-07T02:48:00.344Z,11.45
2017-09-07T02:49:12.893Z,11.48
2017-09-07T02:50:25.128Z,11.48
2017-09-07T02:51:37.381Z,11.48
2017-09-07T02:52:49.931Z,11.45
2017-09-07T02:54:02.178Z,11.48
2017-09-07T02:55:14.722Z,11.48
2017-09-07T02:56:26.340Z,11.51
2017-09-07T02:57:38.880Z,11.49
2017-09-07T02:58:51.113Z,11.45
2017-09-07T03:00:03.347Z,11.41
2017-09-07T03:01:15.546Z,11.44
2017-09-07T03:02:27.768Z,11.48
2017-09-07T03:03:40.318Z,11.45
2017-09-07T03:04:52.853Z,11.44
2017-09-07T03:06:04.782Z,11.4
2017-09-07T03:07:17.579Z,11.41
2017-09-07T03:08:30.137Z,11.4
2017-09-07T03:09:42.662Z,11.38
2017-09-07T03:10:54.885Z,11.43
2017-09-07T03:12:06.803Z,11.4
2017-09-07T03:13:19.349Z,11.38
2017-09-07T03:14:31.902Z,11.37
2017-09-07T03:15:44.422Z,11.35
2017-09-07T03:16:56.335Z,11.38
2017-09-07T03:18:08.878Z,11.35
2017-09-07T03:19:21.411Z,11.4
2017-09-07T03:20:33.630Z,11.31
2017-09-07T03:21:45.865Z,11.4
2017-09-07T03:22:58.085Z,11.34
2017-09-07T03:24:10.590Z,11.33
2017-09-07T03:25:22.806Z,11.34
2017-09-07T03:26:35.355Z,11.34
2017-09-07T03:27:47.594Z,11.34
2017-09-07T03:29:00.125Z,11.27
2017-09-07T03:30:12.660Z,11.3
2017-09-07T03:31:24.934Z,11.3
2017-09-07T03:32:37.462Z,11.27
2017-09-07T03:33:50.007Z,11.33
2017-09-07T03:35:02.545Z,11.31
2017-09-07T03:36:14.474Z,11.26
2017-09-07T03:37:26.393Z,11.31
2017-09-07T03:38:38.616Z,11.33
2017-09-07T03:39:51.102Z,11.26
2017-09-07T03:41:03.631Z,11.25
2017-09-07T03:42:16.183Z,11.25
2017-09-07T03:43:28.717Z,11.26
2017-09-07T03:44:41.257Z,11.22
2017-09-07T03:45:53.512Z,11.3
2017-09-07T03:47:05.728Z,11.19
2017-09-07T03:48:17.957Z,11.25
2017-09-07T03:49:30.190Z,11.19
2017-09-07T03:50:42.735Z,11.27
2017-09-07T03:51:54.960Z,11.23
2017-09-07T03:53:06.860Z,11.26
2017-09-07T03:54:19.406Z,11.23
2017-09-07T03:55:31.928Z,11.19
2017-09-07T03:56:44.464Z,11.22
2017-09-07T03:57:56.735Z,11.25
2017-09-07T03:59:08.966Z,11.22
2017-09-07T04:00:21.200Z,11.23
2017-09-07T04:01:33.683Z,11.2
2017-09-07T04:02:45.903Z,11.26
2017-09-07T04:03:58.122Z,11.19
2017-09-07T04:05:10.666Z,11.19
2017-09-07T04:06:22.879Z,11.27
2017-09-07T04:07:34.800Z,11.22
2017-09-07T04:08:47.352Z,11.16
2017-09-07T04:09:58.977Z,11.19
2017-09-07T04:11:11.498Z,11.2
2017-09-07T04:12:23.415Z,11.18
2017-09-07T04:13:35.965Z,11.12
2017-09-07T04:14:48.530Z,11.18
2017-09-07T04:16:00.751Z,11.13
2017-09-07T04:17:12.676Z,11.16
2017-09-07T04:18:25.247Z,11.22
2017-09-07T04:19:37.488Z,11.16
2017-09-07T04:20:49.734Z,11.2
2017-09-07T04:22:01.954Z,11.16
2017-09-07T04:23:14.179Z,11.22
2017-09-07T04:24:26.413Z,11.23
2017-09-07T04:25:38.970Z,11.23
2017-09-07T04:26:51.529Z,11.19
2017-09-07T04:28:04.079Z,11.23
2017-09-07T04:29:16.629Z,11.31
2017-09-07T04:30:29.170Z,11.31
2017-09-07T04:31:41.723Z,11.3
2017-09-07T04:32:53.987Z,11.35
2017-09-07T04:34:06.529Z,11.35
2017-09-07T04:35:19.082Z,11.31
2017-09-07T04:36:31.656Z,11.35
2017-09-07T04:37:43.919Z,11.4
2017-09-07T04:38:56.461Z,11.37
2017-09-07T04:40:08.985Z,11.4
2017-09-07T04:41:21.530Z,11.43
2017-09-07T04:42:33.461Z,11.35
2017-09-07T04:43:45.704Z,11.4
2017-09-07T04:44:58.188Z,11.4
2017-09-07T04:46:10.421Z,11.41
2017-09-07T04:47:22.933Z,11.41
2017-09-07T04:48:34.835Z,11.41
2017-09-07T04:49:47.335Z,11.44
2017-09-07T04:50:59.268Z,11.44
2017-09-07T04:52:11.799Z,11.44
2017-09-07T04:53:24.366Z,11.41
2017-09-07T04:54:36.590Z,11.49
2017-09-07T04:55:48.836Z,11.45
2017-09-07T04:57:01.052Z,11.48
2017-09-07T04:58:13.620Z,11.52
2017-09-07T04:59:26.140Z,11.52
2017-09-07T05:00:38.668Z,11.58
2017-09-07T05:01:51.206Z,11.63
2017-09-07T05:03:03.427Z,11.63
2017-09-07T05:04:15.954Z,11.74
2017-09-07T05:05:28.476Z,11.71
2017-09-07T05:06:41.045Z,11.78
2017-09-07T05:07:53.580Z,11.81
2017-09-07T05:09:05.827Z,11.83
2017-09-07T05:10:18.059Z,11.83
2017-09-07T05:11:30.601Z,11.88
2017-09-07T05:12:43.139Z,11.95
2017-09-07T05:13:55.042Z,11.88
2017-09-07T05:15:07.259Z,11.89
2017-09-07T05:16:19.201Z,11.99
2017-09-07T05:17:31.774Z,11.99
2017-09-07T05:18:43.723Z,12.07
2017-09-07T05:19:55.638Z,12.17
2017-09-07T05:21:08.187Z,12.08
2017-09-07T05:22:20.715Z,12.23
2017-09-07T05:23:32.928Z,12.12
2017-09-07T05:24:44.857Z,12.26
2017-09-07T05:25:57.076Z,12.26
2017-09-07T05:27:08.998Z,12.25
2017-09-07T05:28:21.536Z,12.25
2017-09-07T05:29:33.788Z,12.35
2017-09-07T05:30:46.307Z,12.32
2017-09-07T05:31:58.843Z,12.37
2017-09-07T05:33:11.064Z,12.43
2017-09-07T05:34:23.585Z,12.4
2017-09-07T05:35:35.807Z,12.44
2017-09-07T05:36:48.365Z,12.55
2017-09-07T05:38:00.301Z,12.53
2017-09-07T05:39:12.802Z,12.61
2017-09-07T05:40:25.018Z,12.66
2017-09-07T05:41:37.268Z,12.66
2017-09-07T05:42:49.184Z,12.68
2017-09-07T05:44:01.711Z,12.69
2017-09-07T05:45:13.924Z,12.8
2017-09-07T05:46:26.503Z,12.7
2017-09-07T05:47:38.725Z,12.8
2017-09-07T05:48:50.945Z,12.81
2017-09-07T05:50:03.208Z,12.83
2017-09-07T05:51:15.724Z,12.83
2017-09-07T05:52:27.974Z,12.87
2017-09-07T05:53:40.501Z,12.88
2017-09-07T05:54:53.069Z,12.95
2017-09-07T05:56:05.271Z,12.94
2017-09-07T05:57:17.832Z,13.03
2017-09-07T05:58:30.399Z,13.06
2017-09-07T05:59:42.301Z,13.08
2017-09-07T06:00:54.839Z,12.93
2017-09-07T06:02:07.344Z,12.93
2017-09-07T06:03:19.884Z,13.01
2017-09-07T06:04:32.431Z,13.08
2017-09-07T06:05:44.959Z,13.13
2017-09-07T06:06:57.195Z,13.13
2017-09-07T06:08:09.743Z,13.11
2017-09-07T06:09:22.271Z,13.09
2017-09-07T06:10:34.840Z,13.13
2017-09-07T06:11:46.733Z,13.09
2017-09-07T06:12:58.650Z,13.23
2017-09-07T06:14:10.892Z,13.17
2017-09-07T06:15:23.148Z,13.17
2017-09-07T06:16:35.658Z,13.16
2017-09-07T06:17:47.908Z,13.09
2017-09-07T06:19:00.133Z,13.23
2017-09-07T06:20:12.353Z,13.24
2017-09-07T06:21:23.979Z,13.28
2017-09-07T06:22:36.165Z,13.27
2017-09-07T06:23:48.392Z,13.37
2017-09-07T06:25:00.615Z,13.33
2017-09-07T06:26:12.857Z,13.36
2017-09-07T06:27:24.783Z,13.47
2017-09-07T06:28:37.328Z,13.47
2017-09-07T06:29:49.847Z,13.58
2017-09-07T06:31:01.768Z,13.52
2017-09-07T06:32:14.302Z,13.57
2017-09-07T06:33:26.534Z,13.6
2017-09-07T06:34:38.769Z,13.61
2017-09-07T06:35:50.689Z,13.68
2017-09-07T06:37:02.295Z,13.65
2017-09-07T06:38:13.914Z,13.65
2017-09-07T06:39:26.450Z,13.68
2017-09-07T06:40:38.675Z,13.68
2017-09-07T06:41:50.903Z,13.83
2017-09-07T06:43:03.437Z,13.78
2017-09-07T06:44:15.911Z,13.8
2017-09-07T06:45:28.432Z,13.8
2017-09-07T06:46:40.982Z,13.85
2017-09-07T06:47:53.202Z,13.89
2017-09-07T06:49:05.740Z,13.89
2017-09-07T06:50:17.945Z,13.97
2017-09-07T06:51:30.161Z,14.05
2017-09-07T06:52:42.684Z,14.07
2017-09-07T06:53:55.231Z,14.08
2017-09-07T06:55:07.144Z,14.25
2017-09-07T06:56:19.690Z,14.22
2017-09-07T06:57:32.211Z,14.25
2017-09-07T06:58:44.431Z,14.33
2017-09-07T06:59:56.984Z,14.36
2017-09-07T07:01:09.206Z,14.43
2017-09-07T07:02:21.731Z,14.38
2017-09-07T07:03:33.976Z,14.38
2017-09-07T07:04:46.520Z,14.49
2017-09-07T07:05:59.065Z,14.4
2017-09-07T07:07:11.304Z,14.43
2017-09-07T07:08:23.849Z,14.38
2017-09-07T07:09:36.102Z,14.38
2017-09-07T07:10:48.640Z,14.31
2017-09-07T07:12:00.259Z,14.44
2017-09-07T07:13:12.466Z,14.34
2017-09-07T07:14:25.001Z,14.36
2017-09-07T07:15:37.229Z,14.33
2017-09-07T07:16:49.447Z,14.37
2017-09-07T07:18:01.695Z,14.44
2017-09-07T07:19:13.942Z,14.48
2017-09-07T07:20:26.485Z,14.66
2017-09-07T07:21:38.708Z,14.66
2017-09-07T07:22:50.928Z,14.73
2017-09-07T07:24:03.174Z,14.77
2017-09-07T07:25:15.739Z,14.93
2017-09-07T07:26:27.970Z,15.02
2017-09-07T07:27:39.902Z,15
2017-09-07T07:28:52.458Z,15.08
2017-09-07T07:30:05.003Z,15.05
2017-09-07T07:31:17.226Z,15.15
2017-09-07T07:32:29.463Z,15.14
2017-09-07T07:33:41.367Z,15.18
2017-09-07T07:34:53.588Z,15.27
2017-09-07T07:36:06.130Z,15.43
2017-09-07T07:37:18.642Z,15.45
2017-09-07T07:38:31.195Z,15.51
2017-09-07T07:39:43.761Z,15.66
2017-09-07T07:40:55.361Z,15.76
2017-09-07T07:42:07.624Z,15.94
2017-09-07T07:43:19.896Z,16
2017-09-07T07:44:31.827Z,16.06
2017-09-07T07:45:44.061Z,16.06
2017-09-07T07:46:56.607Z,16
2017-09-07T07:48:08.539Z,16.16
2017-09-07T07:49:20.159Z,16.18
2017-09-07T07:50:32.728Z,16.16
2017-09-07T07:51:44.955Z,16.16
2017-09-07T07:52:57.500Z,16.12
2017-09-07T07:54:10.058Z,16.16
2017-09-07T07:55:22.611Z,16.21
2017-09-07T07:56:34.855Z,16.25
2017-09-07T07:57:46.777Z,16.25
2017-09-07T07:58:58.995Z,16.32
2017-09-07T08:00:11.242Z,16.32
2017-09-07T08:01:23.779Z,16.5
2017-09-07T08:02:35.726Z,16.4
2017-09-07T08:03:47.949Z,16.57
2017-09-07T08:05:00.505Z,16.59
2017-09-07T08:06:12.767Z,16.65
2017-09-07T08:07:25.286Z,16.61
2017-09-07T08:08:37.189Z,16.68
2017-09-07T08:09:49.129Z,16.64
2017-09-07T08:11:01.673Z,16.61
2017-09-07T08:12:14.227Z,16.66
2017-09-07T08:13:26.448Z,16.65
2017-09-07T08:14:38.665Z,16.69
2017-09-07T08:15:50.911Z,16.69
2017-09-07T08:17:03.451Z,16.77
2017-09-07T08:18:15.977Z,16.77
2017-09-07T08:19:28.528Z,16.76
2017-09-07T08:20:40.793Z,16.83
2017-09-07T08:21:53.019Z,16.87
2017-09-07T08:23:05.262Z,16.92
2017-09-07T08:24:17.197Z,16.98
2017-09-07T08:25:29.423Z,17.07
2017-09-07T08:26:41.343Z,17.2
2017-09-07T08:27:53.562Z,17.23
2017-09-07T08:29:05.791Z,17.27
2017-09-07T08:30:17.713Z,17.24
2017-09-07T08:31:30.259Z,17.3
2017-09-07T08:32:42.503Z,17.24
2017-09-07T08:33:55.041Z,17.28
2017-09-07T08:35:07.291Z,17.27
2017-09-07T08:36:19.854Z,17.27
2017-09-07T08:37:32.403Z,17.38
2017-09-07T08:38:44.858Z,17.44
2017-09-07T08:39:57.123Z,17.35
2017-09-07T08:41:09.345Z,17.52
2017-09-07T08:42:21.539Z,17.63
2017-09-07T08:43:33.781Z,17.6
2017-09-07T08:44:46.284Z,17.78
2017-09-07T08:45:58.222Z,17.69
2017-09-07T08:47:10.150Z,17.76
2017-09-07T08:48:22.063Z,17.87
2017-09-07T08:49:34.575Z,17.87
2017-09-07T08:50:47.102Z,17.97
2017-09-07T08:51:59.630Z,18.02
2017-09-07T08:53:11.853Z,17.97
2017-09-07T08:54:24.364Z,17.87
2017-09-07T08:55:36.612Z,17.91
2017-09-07T08:56:47.938Z,17.88
2017-09-07T08:58:00.459Z,17.91
2017-09-07T08:59:12.697Z,17.93
2017-09-07T09:00:24.327Z,17.95
2017-09-07T09:01:36.866Z,17.97
2017-09-07T09:02:49.088Z,17.94
2017-09-07T09:04:01.312Z,17.91
2017-09-07T09:05:14.128Z,17.91
2017-09-07T09:06:26.682Z,17.84
2017-09-07T09:07:39.244Z,17.86
2017-09-07T09:08:51.493Z,17.9
2017-09-07T09:10:03.740Z,17.94
2017-09-07T09:11:15.657Z,17.86
2017-09-07T09:12:28.182Z,17.86
2017-09-07T09:13:40.729Z,17.79
2017-09-07T09:14:52.971Z,17.86
2017-09-07T09:16:04.888Z,17.84
2017-09-07T09:17:17.416Z,17.88
2017-09-07T09:18:29.326Z,17.84
2017-09-07T09:19:41.572Z,17.86
2017-09-07T09:20:53.493Z,17.87
2017-09-07T09:22:05.727Z,17.94
2017-09-07T09:23:17.946Z,17.87
2017-09-07T09:24:30.184Z,17.93
2017-09-07T09:25:42.729Z,17.91
2017-09-07T09:26:54.997Z,17.93
2017-09-07T09:28:07.570Z,17.9
2017-09-07T09:29:20.116Z,18.05
2017-09-07T09:30:32.668Z,18.08
2017-09-07T09:31:45.204Z,18.02
2017-09-07T09:32:57.450Z,18.02
2017-09-07T09:34:09.373Z,18.11
2017-09-07T09:35:20.978Z,18.13
2017-09-07T09:36:33.194Z,18.19
2017-09-07T09:37:45.141Z,18.26
2017-09-07T09:38:57.660Z,18.27
2017-09-07T09:40:09.607Z,18.28
2017-09-07T09:41:22.147Z,18.37
2017-09-07T09:42:34.401Z,18.52
2017-09-07T09:43:46.918Z,18.46
2017-09-07T09:44:59.467Z,18.63
2017-09-07T09:46:11.709Z,18.58
2017-09-07T09:47:24.256Z,18.63
2017-09-07T09:48:36.793Z,18.67
2017-09-07T09:49:48.702Z,18.81
2017-09-07T09:51:00.638Z,18.78
2017-09-07T09:52:13.166Z,18.76
2017-09-07T09:53:25.684Z,18.73
2017-09-07T09:54:37.930Z,18.7
2017-09-07T09:55:50.441Z,18.67
2017-09-07T09:57:02.351Z,18.64
2017-09-07T09:58:14.258Z,18.48
2017-09-07T09:59:26.760Z,18.53
2017-09-07T10:00:39.300Z,18.48
2017-09-07T10:01:51.528Z,18.43
2017-09-07T10:03:03.444Z,18.42
2017-09-07T10:04:15.997Z,18.3
2017-09-07T10:05:28.235Z,18.3
2017-09-07T10:06:40.486Z,18.27
2017-09-07T10:07:52.999Z,18.37
2017-09-07T10:09:05.256Z,18.3
2017-09-07T10:10:17.776Z,18.36
2017-09-07T10:11:30.347Z,18.42
2017-09-07T10:12:42.910Z,18.46
2017-09-07T10:13:55.486Z,18.39
2017-09-07T10:15:07.711Z,18.42
2017-09-07T10:16:20.243Z,18.42
2017-09-07T10:17:32.489Z,18.46
2017-09-07T10:18:44.741Z,18.37
2017-09-07T10:19:57.291Z,18.28
2017-09-07T10:21:09.764Z,18.12
2017-09-07T10:22:22.311Z,17.95
2017-09-07T10:23:34.553Z,17.91
2017-09-07T10:24:46.171Z,17.8
2017-09-07T10:25:58.395Z,17.75
2017-09-07T10:27:10.637Z,17.54
2017-09-07T10:28:23.183Z,17.44
2017-09-07T10:29:35.704Z,17.3
2017-09-07T10:30:47.943Z,17.13
2017-09-07T10:32:00.173Z,17.07
2017-09-07T10:33:12.432Z,17.04
2017-09-07T10:34:25.007Z,17.05
2017-09-07T10:35:36.608Z,16.95
2017-09-07T10:36:48.870Z,16.98
2017-09-07T10:38:01.379Z,16.99
2017-09-07T10:39:13.935Z,17.12
2017-09-07T10:40:25.865Z,17.02
2017-09-07T10:41:37.755Z,17.2
2017-09-07T10:42:49.979Z,17.37
2017-09-07T10:44:01.900Z,17.5
2017-09-07T10:45:13.839Z,17.59
2017-09-07T10:46:26.388Z,17.78
2017-09-07T10:47:38.612Z,17.93
2017-09-07T10:48:50.804Z,18.05
2017-09-07T10:50:02.481Z,18.09
2017-09-07T10:51:14.703Z,18.15
2017-09-07T10:52:27.242Z,18.16
2017-09-07T10:53:39.796Z,18.05
2017-09-07T10:54:52.040Z,18.05
2017-09-07T10:56:04.308Z,17.94
2017-09-07T10:57:16.254Z,17.97
2017-09-07T10:58:28.498Z,17.84
2017-09-07T10:59:41.036Z,17.73
2017-09-07T11:00:53.281Z,17.66
2017-09-07T11:02:05.535Z,17.68
2017-09-07T11:03:18.080Z,17.68
2017-09-07T11:04:30.323Z,17.63
2017-09-07T11:05:42.847Z,17.68
2017-09-07T11:06:54.472Z,17.78
2017-09-07T11:08:07.038Z,17.78
2017-09-07T11:09:19.579Z,17.8
2017-09-07T11:10:31.785Z,17.87
2017-09-07T11:11:44.329Z,17.94
2017-09-07T11:12:56.893Z,17.9
2017-09-07T11:14:09.434Z,18.05
2017-09-07T11:15:21.991Z,17.97
2017-09-07T11:16:33.617Z,18
2017-09-07T11:17:45.549Z,18.05
2017-09-07T11:18:57.754Z,18.15
2017-09-07T11:20:09.991Z,18.16
2017-09-07T11:21:22.533Z,18.15
2017-09-07T11:22:35.082Z,18.15
2017-09-07T11:23:47.310Z,18.21
2017-09-07T11:24:59.851Z,18.3
2017-09-07T11:26:12.424Z,18.31
2017-09-07T11:27:24.322Z,18.3
2017-09-07T11:28:36.860Z,18.15
2017-09-07T11:29:49.385Z,18.13
2017-09-07T11:31:01.934Z,18.08
2017-09-07T11:32:14.472Z,18.05
2017-09-07T11:33:26.690Z,18.06
2017-09-07T11:34:39.239Z,17.91
2017-09-07T11:35:51.167Z,17.79
2017-09-07T11:37:03.430Z,17.78
2017-09-07T11:38:15.629Z,17.56
2017-09-07T11:39:28.204Z,17.54
2017-09-07T11:40:40.450Z,17.49
2017-09-07T11:41:52.068Z,17.32
2017-09-07T11:43:04.644Z,17.27
2017-09-07T11:44:17.189Z,17.16
2017-09-07T11:45:29.734Z,17.2
2017-09-07T11:46:42.282Z,17.1
2017-09-07T11:47:54.515Z,17.12
2017-09-07T11:49:07.046Z,17.1
2017-09-07T11:50:18.978Z,17.05
2017-09-07T11:51:30.913Z,17.05
2017-09-07T11:52:42.832Z,17.01
2017-09-07T11:53:55.074Z,17.01
2017-09-07T11:55:07.615Z,17.1
2017-09-07T11:56:20.160Z,17.01
2017-09-07T11:57:31.802Z,17.07
2017-09-07T11:58:43.751Z,17.05
2017-09-07T11:59:55.679Z,17.16
2017-09-07T12:01:07.615Z,17.22
2017-09-07T12:02:19.843Z,17.24
2017-09-07T12:03:32.041Z,17.34
2017-09-07T12:04:44.840Z,17.39
2017-09-07T12:05:57.381Z,17.44
2017-09-07T12:07:09.302Z,17.39
2017-09-07T12:08:21.250Z,17.42
2017-09-07T12:09:33.784Z,17.5
2017-09-07T12:10:46.041Z,17.6
2017-09-07T12:11:58.007Z,17.56
2017-09-07T12:13:09.956Z,17.57
2017-09-07T12:14:22.199Z,17.56
2017-09-07T12:15:34.749Z,17.71
2017-09-07T12:16:47.319Z,17.71
2017-09-07T12:17:59.562Z,17.9
2017-09-07T12:19:12.129Z,17.88
2017-09-07T12:20:24.357Z,17.94
2017-09-07T12:21:36.601Z,17.97
2017-09-07T12:22:48.818Z,17.98
2017-09-07T12:24:01.333Z,18.05
2017-09-07T12:25:13.582Z,18.03
2017-09-07T12:26:26.123Z,18
2017-09-07T12:27:37.725Z,17.97
2017-09-07T12:28:50.275Z,17.98
2017-09-07T12:30:02.196Z,17.93
2017-09-07T12:31:14.747Z,17.88
2017-09-07T12:32:27.280Z,17.78
2017-09-07T12:33:39.180Z,17.57
2017-09-07T12:34:51.425Z,17.57
2017-09-07T12:36:03.963Z,17.38
2017-09-07T12:37:15.888Z,17.28
2017-09-07T12:38:28.088Z,17.2
2017-09-07T12:39:40.615Z,17.1
2017-09-07T12:40:53.154Z,17.05
2017-09-07T12:42:05.076Z,17.04
2017-09-07T12:43:17.612Z,17.01
2017-09-07T12:44:29.844Z,16.98
2017-09-07T12:45:42.087Z,17.12
2017-09-07T12:46:54.634Z,16.98
2017-09-07T12:48:06.928Z,17.07
2017-09-07T12:49:18.870Z,17.14
2017-09-07T12:50:31.423Z,17.2
2017-09-07T12:51:43.656Z,17.31
2017-09-07T12:52:55.905Z,17.35
2017-09-07T12:54:07.826Z,17.42
2017-09-07T12:55:20.404Z,17.5
2017-09-07T12:56:32.950Z,17.59
2017-09-07T12:57:44.888Z,17.69
2017-09-07T12:58:57.430Z,17.73
2017-09-07T13:00:09.626Z,17.8
2017-09-07T13:01:22.153Z,17.78
2017-09-07T13:02:34.700Z,17.8
2017-09-07T13:03:46.898Z,17.88
2017-09-07T13:04:59.436Z,17.86
2017-09-07T13:06:11.355Z,17.88
2017-09-07T13:07:23.890Z,17.91
2017-09-07T13:08:36.453Z,17.95
2017-09-07T13:09:48.648Z,17.86
2017-09-07T13:11:00.894Z,17.88
2017-09-07T13:12:13.428Z,17.84
2017-09-07T13:13:25.664Z,17.82
2017-09-07T13:14:37.902Z,17.91
2017-09-07T13:15:49.818Z,17.79
2017-09-07T13:17:01.728Z,17.72
2017-09-07T13:18:14.289Z,17.65
2017-09-07T13:19:26.517Z,17.65
2017-09-07T13:20:39.060Z,17.6
2017-09-07T13:21:51.280Z,17.54
2017-09-07T13:23:02.927Z,17.42
2017-09-07T13:24:15.463Z,17.24
2017-09-07T13:25:27.417Z,17.13
2017-09-07T13:26:39.642Z,16.95
2017-09-07T13:27:51.556Z,16.89
2017-09-07T13:29:03.779Z,16.86
2017-09-07T13:30:15.700Z,16.66
2017-09-07T13:31:28.267Z,16.5
2017-09-07T13:32:39.883Z,16.43
2017-09-07T13:33:52.140Z,16.43
2017-09-07T13:35:04.357Z,16.44
2017-09-07T13:36:15.971Z,16.34
2017-09-07T13:37:28.524Z,16.32
2017-09-07T13:38:40.444Z,16.29
2017-09-07T13:39:52.691Z,16.26
2017-09-07T13:41:05.240Z,16.4
2017-09-07T13:42:17.486Z,16.37
2017-09-07T13:43:30.058Z,16.4
2017-09-07T13:44:42.322Z,16.37
2017-09-07T13:45:54.215Z,16.43
2017-09-07T13:47:06.444Z,16.47
2017-09-07T13:48:18.681Z,16.47
2017-09-07T13:49:31.209Z,16.55
2017-09-07T13:50:43.800Z,16.55
2017-09-07T13:51:56.374Z,16.55
2017-09-07T13:53:08.317Z,16.57
2017-09-07T13:54:20.862Z,16.62
2017-09-07T13:55:33.100Z,16.61
2017-09-07T13:56:45.330Z,16.61
2017-09-07T13:57:57.845Z,16.66
2017-09-07T13:59:10.414Z,16.74
2017-09-07T14:00:22.674Z,16.84
2017-09-07T14:01:34.932Z,16.79
2017-09-07T14:02:46.854Z,16.89
2017-09-07T14:03:59.080Z,16.98
2017-09-07T14:05:10.695Z,16.99
2017-09-07T14:06:23.247Z,17.04
2017-09-07T14:07:35.190Z,17.17
2017-09-07T14:08:47.403Z,17.24
2017-09-07T14:09:58.998Z,17.3
2017-09-07T14:11:10.903Z,17.41
2017-09-07T14:12:23.433Z,17.41
2017-09-07T14:13:36.049Z,17.44
2017-09-07T14:14:47.998Z,17.54
2017-09-07T14:15:59.991Z,17.53
2017-09-07T14:17:12.573Z,17.6
2017-09-07T14:18:25.132Z,17.6
2017-09-07T14:19:37.644Z,17.53
2017-09-07T14:20:49.924Z,17.65
2017-09-07T14:22:01.849Z,17.65
2017-09-07T14:23:13.839Z,17.56
2017-09-07T14:24:26.386Z,17.52
2017-09-07T14:25:38.359Z,17.6
2017-09-07T14:26:50.626Z,17.42
2017-09-07T14:28:03.200Z,17.57
2017-09-07T14:29:15.163Z,17.53
2017-09-07T14:30:27.732Z,17.41
2017-09-07T14:31:40.228Z,17.42
2017-09-07T14:32:52.787Z,17.37
2017-09-07T14:34:05.368Z,17.28
2017-09-07T14:35:17.957Z,17.22
2017-09-07T14:36:30.243Z,17.16
2017-09-07T14:37:42.807Z,17.1
2017-09-07T14:38:55.407Z,16.94
2017-09-07T14:40:07.973Z,16.98
2017-09-07T14:41:20.468Z,16.92
2017-09-07T14:42:33.070Z,16.91
2017-09-07T14:43:45.277Z,16.89
2017-09-07T14:44:57.803Z,16.86
2017-09-07T14:46:09.729Z,16.83
2017-09-07T14:47:21.357Z,16.82
2017-09-07T14:48:33.916Z,16.79
2017-09-07T14:49:46.475Z,16.89
2017-09-07T14:50:58.691Z,16.89
2017-09-07T14:52:11.239Z,16.89
2017-09-07T14:53:23.841Z,16.91
2017-09-07T14:54:36.075Z,16.94
2017-09-07T14:55:48.633Z,16.92
2017-09-07T14:57:01.161Z,16.98
2017-09-07T14:58:13.713Z,17.01
2017-09-07T14:59:26.009Z,17.02
2017-09-07T15:00:37.957Z,17.07
2017-09-07T15:01:50.551Z,17.1
2017-09-07T15:03:02.214Z,17.12
2017-09-07T15:04:14.778Z,17.12
2017-09-07T15:05:27.019Z,17.12
2017-09-07T15:06:39.633Z,17.07
2017-09-07T15:07:52.189Z,17.12
2017-09-07T15:09:04.767Z,17.09
2017-09-07T15:10:17.029Z,17.1
2017-09-07T15:11:28.990Z,17.12
2017-09-07T15:12:41.273Z,17.19
2017-09-07T15:13:53.807Z,17.09
2017-09-07T15:15:05.447Z,17.16
2017-09-07T15:16:17.679Z,17.17
2017-09-07T15:17:30.263Z,17.14
2017-09-07T15:18:42.562Z,17.13
2017-09-07T15:19:54.534Z,17.09
2017-09-07T15:21:07.107Z,17.1
2017-09-07T15:22:19.671Z,17.07
2017-09-07T15:23:31.918Z,17.05
2017-09-07T15:24:43.838Z,17.09
2017-09-07T15:25:56.117Z,17.12
2017-09-07T15:27:08.683Z,17.04
2017-09-07T15:28:21.266Z,17.02
2017-09-07T15:29:33.511Z,16.98
2017-09-07T15:30:46.075Z,17.07
2017-09-07T15:31:57.997Z,17.09
2017-09-07T15:33:09.937Z,17.04
2017-09-07T15:34:22.201Z,17.01